Time;durP1;ratioP1;P1;durP2;ratioP2;P2;SDS_P1;SDS_P2;PMS_P1;PMS_P2;Temp;Humidity;BMP_temperature;BMP_pressure;BME280_temperature;BME280_humidity;BME280_pressure;Samples;Min_cycle;Max_cycle;Signal;HPM_P1;HPM_P2
2022/10/15 00:01:09;;;;;;;1.73;1.60;;;23.50;70.20;;;;;;4896906;29;20459;-73
2022/10/15 00:03:38;;;;;;;3.90;2.73;;;23.50;70.20;;;;;;4888685;29;20463;-73
2022/10/15 00:06:10;;;;;;;2.20;1.40;;;23.50;70.10;;;;;;4900404;29;20802;-74
2022/10/15 00:08:39;;;;;;;1.23;1.23;;;23.50;70.10;;;;;;4896608;29;20478;-74
2022/10/15 00:11:10;;;;;;;1.60;1.50;;;23.50;70.10;;;;;;4900594;29;20941;-74
2022/10/15 00:13:40;;;;;;;1.53;1.43;;;23.50;70.10;;;;;;4893703;29;20997;-74
2022/10/15 00:16:10;;;;;;;1.40;1.30;;;23.50;70.10;;;;;;4898823;29;20497;-73
2022/10/15 00:18:39;;;;;;;1.40;1.30;;;23.50;70.10;;;;;;4896806;29;20476;-74
2022/10/15 00:21:08;;;;;;;2.43;1.33;;;23.50;70.10;;;;;;4896624;29;20462;-73
2022/10/15 00:23:36;;;;;;;1.40;1.27;;;23.50;70.20;;;;;;4899627;29;20452;-74
2022/10/15 00:26:07;;;;;;;1.83;1.67;;;23.50;70.10;;;;;;4899709;29;20482;-73
2022/10/15 00:28:35;;;;;;;1.23;1.10;;;23.50;70.10;;;;;;4897807;29;20468;-74
2022/10/15 00:31:08;;;;;;;1.33;1.23;;;23.50;70.10;;;;;;4898822;29;20487;-74
2022/10/15 00:33:37;;;;;;;2.97;1.03;;;23.50;70.10;;;;;;4895659;29;20952;-74
2022/10/15 00:36:07;;;;;;;1.20;1.10;;;23.50;70.10;;;;;;4899056;29;20573;-74
2022/10/15 00:38:35;;;;;;;1.47;1.37;;;23.50;70.10;;;;;;4893741;29;20490;-74
2022/10/15 00:41:05;;;;;;;1.40;1.30;;;23.50;70.10;;;;;;4898969;29;20441;-74
2022/10/15 00:43:41;;;;;;;1.23;1.17;;;23.50;70.10;;;;;;4896794;29;20464;-74
2022/10/15 00:46:24;;;;;;;1.30;1.20;;;23.50;70.10;;;;;;4890186;29;20472;-74
2022/10/15 00:48:56;;;;;;;1.10;1.10;;;23.50;70.10;;;;;;4880199;29;20457;-74
2022/10/15 00:51:29;;;;;;;1.40;1.40;;;23.50;70.10;;;;;;4912648;29;20466;-74
2022/10/15 00:53:59;;;;;;;1.33;0.90;;;23.50;70.10;;;;;;4888452;29;20817;-74
2022/10/15 00:56:31;;;;;;;1.70;1.57;;;23.50;70.10;;;;;;4881030;29;21041;-74
2022/10/15 00:59:00;;;;;;;1.10;0.90;;;23.50;70.10;;;;;;4896473;29;20459;-73
2022/10/15 01:01:31;;;;;;;1.00;1.00;;;23.50;70.10;;;;;;4897738;29;20542;-74
2022/10/15 01:04:01;;;;;;;1.17;1.07;;;23.50;70.10;;;;;;4897938;29;20463;-73
2022/10/15 01:06:29;;;;;;;0.83;0.83;;;23.50;70.10;;;;;;4883620;29;20456;-73
2022/10/15 01:08:58;;;;;;;1.10;1.10;;;23.50;70.10;;;;;;4883341;29;20774;-74
2022/10/15 01:11:36;;;;;;;1.53;1.17;;;23.50;70.10;;;;;;4898607;29;20970;-73
2022/10/15 01:14:17;;;;;;;1.00;1.00;;;23.50;70.10;;;;;;4897192;29;20656;-73
2022/10/15 01:16:51;;;;;;;1.10;1.00;;;23.40;70.10;;;;;;4866182;29;20487;-73
2022/10/15 01:19:36;;;;;;;1.73;1.10;;;23.50;70.10;;;;;;4910097;29;20495;-74
2022/10/15 01:22:09;;;;;;;1.03;0.93;;;23.50;70.10;;;;;;4897312;29;20460;-74
2022/10/15 01:24:54;;;;;;;1.53;1.10;;;23.50;70.10;;;;;;4907317;29;20480;-74
2022/10/15 01:27:29;;;;;;;1.20;1.10;;;23.50;70.10;;;;;;4883263;29;20452;-74
2022/10/15 01:30:24;;;;;;;1.77;1.20;;;23.40;70.10;;;;;;4896263;29;20810;-74
2022/10/15 01:33:25;;;;;;;1.20;0.90;;;23.50;70.10;;;;;;4877820;29;20502;-74
2022/10/15 01:35:58;;;;;;;1.00;1.00;;;23.50;70.10;;;;;;4896762;29;20474;-73
2022/10/15 01:38:39;;;;;;;1.20;1.10;;;23.40;70.10;;;;;;4898236;29;20443;-74
2022/10/15 01:41:11;;;;;;;1.47;0.93;;;23.40;70.10;;;;;;4892365;29;20465;-74
2022/10/15 01:43:46;;;;;;;0.90;0.90;;;23.40;70.10;;;;;;4894626;29;20572;-74
2022/10/15 01:46:48;;;;;;;0.97;0.90;;;23.40;70.10;;;;;;4894070;29;20468;-74
2022/10/15 01:49:26;;;;;;;2.10;1.13;;;23.40;70.10;;;;;;4886528;29;20452;-74
2022/10/15 01:51:57;;;;;;;1.33;1.00;;;23.40;70.10;;;;;;4895961;29;20467;-74
2022/10/15 01:54:27;;;;;;;0.80;0.80;;;23.40;70.10;;;;;;4889973;29;20551;-74
2022/10/15 01:56:58;;;;;;;1.17;1.10;;;23.40;70.10;;;;;;4905556;29;20485;-74
2022/10/15 01:59:31;;;;;;;2.70;1.00;;;23.40;70.10;;;;;;4897113;29;20453;-75
2022/10/15 02:02:01;;;;;;;1.10;1.10;;;23.40;70.10;;;;;;4895207;29;20481;-74
2022/10/15 02:04:31;;;;;;;1.27;0.80;;;23.40;70.10;;;;;;4897273;29;20549;-74
2022/10/15 02:07:03;;;;;;;1.00;0.90;;;23.40;70.10;;;;;;4897723;29;20803;-74
2022/10/15 02:09:43;;;;;;;1.30;0.90;;;23.40;70.10;;;;;;4896144;29;20466;-74
2022/10/15 02:12:30;;;;;;;1.43;0.83;;;23.40;70.10;;;;;;4892565;29;20784;-74
2022/10/15 02:15:06;;;;;;;1.10;1.10;;;23.40;70.10;;;;;;4912126;29;20818;-74
2022/10/15 02:17:41;;;;;;;1.27;0.83;;;23.40;70.10;;;;;;4910772;29;20954;-75
2022/10/15 02:20:15;;;;;;;1.30;1.00;;;23.40;70.20;;;;;;4879620;29;20890;-74
2022/10/15 02:22:48;;;;;;;0.97;0.97;;;23.40;70.10;;;;;;4881726;29;20564;-73
2022/10/15 02:25:21;;;;;;;0.80;0.80;;;23.40;70.10;;;;;;4896557;29;20512;-74
2022/10/15 02:27:52;;;;;;;1.40;0.90;;;23.40;70.10;;;;;;4894840;29;20556;-73
2022/10/15 02:30:21;;;;;;;0.93;0.93;;;23.40;70.10;;;;;;4879041;29;20533;-74
2022/10/15 02:32:55;;;;;;;0.93;0.87;;;23.40;70.10;;;;;;4880556;29;20486;-74
2022/10/15 02:35:24;;;;;;;3.10;1.20;;;23.40;70.10;;;;;;4894586;29;20462;-74
2022/10/15 02:37:54;;;;;;;1.13;0.80;;;23.40;70.10;;;;;;4895880;29;20459;-74
2022/10/15 02:40:26;;;;;;;0.80;0.80;;;23.30;70.10;;;;;;4897202;29;20458;-73
2022/10/15 02:42:55;;;;;;;0.63;0.63;;;23.40;70.10;;;;;;4877354;29;20436;-73
2022/10/15 02:45:23;;;;;;;0.70;0.70;;;23.40;70.10;;;;;;4894948;29;20460;-74
2022/10/15 02:47:53;;;;;;;0.77;0.77;;;23.40;70.00;;;;;;4895022;29;20468;-74
2022/10/15 02:50:21;;;;;;;0.60;0.60;;;23.40;70.00;;;;;;4895597;29;20483;-74
2022/10/15 02:52:58;;;;;;;0.60;0.60;;;23.40;70.00;;;;;;4897227;29;20535;-73
2022/10/15 02:55:27;;;;;;;0.60;0.60;;;23.40;70.00;;;;;;4893056;29;20487;-74
2022/10/15 02:57:55;;;;;;;1.20;1.10;;;23.40;70.00;;;;;;4881796;29;20469;-74
2022/10/15 03:00:23;;;;;;;0.80;0.80;;;23.40;70.10;;;;;;4881616;29;20550;-73
2022/10/15 03:02:53;;;;;;;0.80;0.80;;;23.40;70.00;;;;;;4895145;29;20481;-73
2022/10/15 03:05:21;;;;;;;1.10;1.00;;;23.40;70.00;;;;;;4894165;29;20463;-72
2022/10/15 03:07:49;;;;;;;0.73;0.60;;;23.40;70.00;;;;;;4894311;29;20470;-74
2022/10/15 03:10:18;;;;;;;0.80;0.80;;;23.40;70.10;;;;;;4897179;29;20807;-73
2022/10/15 03:12:47;;;;;;;0.80;0.80;;;23.40;70.00;;;;;;4891320;29;20465;-74
2022/10/15 03:15:15;;;;;;;1.30;0.90;;;23.40;70.10;;;;;;4897084;29;20524;-74
2022/10/15 03:17:45;;;;;;;0.67;0.67;;;23.40;70.00;;;;;;4891046;29;20486;-74
2022/10/15 03:20:17;;;;;;;2.40;0.97;;;23.40;70.00;;;;;;4893508;29;20483;-73
2022/10/15 03:22:46;;;;;;;0.83;0.80;;;23.40;70.00;;;;;;4898749;29;20456;-74
2022/10/15 03:25:14;;;;;;;0.60;0.60;;;23.40;70.00;;;;;;4907975;29;20466;-75
2022/10/15 03:27:42;;;;;;;1.00;0.90;;;23.40;70.00;;;;;;4884989;29;20835;-74
2022/10/15 03:30:22;;;;;;;0.83;0.83;;;23.40;70.10;;;;;;4895430;29;20842;-74
2022/10/15 03:32:51;;;;;;;0.53;0.53;;;23.40;70.00;;;;;;4894923;29;20557;-74
2022/10/15 03:35:21;;;;;;;0.60;0.60;;;23.40;70.00;;;;;;4895570;29;20984;-74
2022/10/15 03:37:49;;;;;;;0.50;0.50;;;23.40;70.00;;;;;;4894355;29;20516;-74
2022/10/15 03:40:18;;;;;;;0.63;0.63;;;23.40;70.00;;;;;;4895123;29;20459;-74
2022/10/15 03:42:50;;;;;;;0.80;0.63;;;23.40;70.00;;;;;;4895132;29;20455;-75
2022/10/15 03:45:24;;;;;;;0.80;0.80;;;23.40;70.00;;;;;;4897177;29;20920;-74
2022/10/15 03:48:07;;;;;;;0.50;0.50;;;23.40;70.00;;;;;;4890871;29;20823;-74
2022/10/15 03:50:38;;;;;;;1.00;0.90;;;23.40;70.00;;;;;;4893941;29;20456;-74
2022/10/15 03:53:06;;;;;;;1.13;0.80;;;23.40;70.10;;;;;;4894403;29;20463;-74
2022/10/15 03:55:35;;;;;;;0.60;0.60;;;23.40;70.20;;;;;;4897577;29;20509;-74
2022/10/15 03:58:03;;;;;;;0.60;0.60;;;23.40;70.10;;;;;;4897458;29;20487;-74
2022/10/15 04:00:32;;;;;;;0.70;0.70;;;23.40;70.00;;;;;;4896053;29;20524;-74
2022/10/15 04:03:02;;;;;;;0.80;0.70;;;23.40;70.10;;;;;;4906691;29;20469;-74
2022/10/15 04:05:31;;;;;;;1.07;0.80;;;23.40;70.00;;;;;;4900883;29;20500;-74
2022/10/15 04:08:07;;;;;;;0.60;0.60;;;23.40;70.10;;;;;;4896131;29;20459;-74
2022/10/15 04:10:39;;;;;;;0.60;0.60;;;23.40;70.20;;;;;;4896987;29;20516;-74
2022/10/15 04:13:07;;;;;;;0.67;0.67;;;23.40;70.00;;;;;;4894711;29;20455;-74
2022/10/15 04:15:39;;;;;;;0.70;0.70;;;23.40;70.10;;;;;;4897888;29;20939;-74
2022/10/15 04:18:14;;;;;;;0.67;0.67;;;23.40;70.10;;;;;;4895311;29;20942;-74
2022/10/15 04:20:43;;;;;;;0.67;0.67;;;23.40;70.20;;;;;;4896361;29;20500;-74
2022/10/15 04:23:20;;;;;;;0.40;0.40;;;23.40;70.20;;;;;;4894227;29;20472;-75
2022/10/15 04:26:09;;;;;;;0.90;0.60;;;23.40;70.10;;;;;;4898518;29;20462;-74
2022/10/15 04:28:37;;;;;;;0.80;0.47;;;23.40;70.20;;;;;;4894620;29;20482;-75
2022/10/15 04:31:06;;;;;;;0.63;0.50;;;23.30;70.20;;;;;;4899140;29;20459;-75
2022/10/15 04:33:34;;;;;;;0.53;0.53;;;23.30;70.20;;;;;;4894342;29;20963;-74
2022/10/15 04:36:05;;;;;;;0.70;0.60;;;23.30;70.20;;;;;;4895875;29;20517;-75
2022/10/15 04:38:48;;;;;;;0.50;0.50;;;23.30;70.20;;;;;;4895208;29;20860;-74
2022/10/15 04:41:26;;;;;;;0.60;0.60;;;23.40;70.20;;;;;;4894815;29;20473;-75
2022/10/15 04:44:04;;;;;;;0.50;0.50;;;23.40;70.20;;;;;;4907735;29;20462;-75
2022/10/15 04:46:33;;;;;;;0.97;0.70;;;23.30;70.20;;;;;;4888806;29;20514;-74
2022/10/15 04:49:19;;;;;;;0.50;0.40;;;23.30;70.20;;;;;;4896164;29;20475;-74
2022/10/15 04:51:47;;;;;;;0.60;0.60;;;23.40;70.20;;;;;;4897238;29;20471;-74
2022/10/15 04:54:23;;;;;;;0.47;0.47;;;23.40;70.10;;;;;;4897742;29;20514;-74
2022/10/15 04:56:58;;;;;;;1.23;0.50;;;23.30;70.20;;;;;;4909449;29;20571;-73
2022/10/15 04:59:27;;;;;;;0.60;0.60;;;23.40;70.10;;;;;;4879372;29;20525;-74
2022/10/15 05:02:14;;;;;;;0.70;0.50;;;23.40;70.20;;;;;;4892512;29;20464;-74
2022/10/15 05:04:43;;;;;;;0.40;0.40;;;23.40;70.20;;;;;;4911571;29;20819;-75
2022/10/15 05:07:12;;;;;;;0.40;0.40;;;23.30;70.20;;;;;;4902011;29;20473;-74
2022/10/15 05:09:43;;;;;;;0.53;0.47;;;23.40;70.20;;;;;;4898787;29;20820;-75
2022/10/15 05:12:14;;;;;;;1.83;0.70;;;23.40;70.10;;;;;;4885223;29;20517;-74
2022/10/15 05:14:42;;;;;;;0.60;0.50;;;23.30;70.20;;;;;;4897550;29;20485;-74
2022/10/15 05:17:25;;;;;;;0.60;0.60;;;23.30;70.10;;;;;;4896151;29;20505;-74
2022/10/15 05:19:55;;;;;;;0.53;0.53;;;23.40;70.10;;;;;;4887759;29;20844;-74
2022/10/15 05:22:27;;;;;;;0.60;0.60;;;23.30;70.10;;;;;;4894688;29;20459;-74
2022/10/15 05:25:00;;;;;;;0.50;0.50;;;23.30;70.10;;;;;;4881554;29;20534;-74
2022/10/15 05:27:33;;;;;;;0.70;0.60;;;23.40;70.10;;;;;;4896930;29;20991;-74
2022/10/15 05:30:03;;;;;;;1.33;0.70;;;23.40;70.10;;;;;;4895499;29;20472;-74
2022/10/15 05:32:51;;;;;;;0.40;0.40;;;23.30;70.20;;;;;;4895919;29;20499;-74
2022/10/15 05:35:20;;;;;;;0.37;0.37;;;23.30;70.20;;;;;;4894130;29;20480;-74
2022/10/15 05:37:59;;;;;;;0.70;0.70;;;23.40;70.20;;;;;;4898251;29;20469;-74
2022/10/15 05:40:29;;;;;;;0.50;0.50;;;23.30;70.20;;;;;;4894063;29;20480;-74
2022/10/15 05:43:10;;;;;;;0.60;0.60;;;23.30;70.20;;;;;;4906431;29;20475;-74
2022/10/15 05:45:38;;;;;;;0.57;0.53;;;23.30;70.20;;;;;;4901337;29;20469;-74
2022/10/15 05:48:07;;;;;;;0.60;0.60;;;23.30;70.30;;;;;;4890808;29;20472;-75
2022/10/15 05:50:36;;;;;;;1.27;1.27;;;23.30;70.30;;;;;;4896046;29;20463;-74
2022/10/15 05:53:08;;;;;;;0.47;0.47;;;23.30;70.30;;;;;;4885426;29;20599;-74
2022/10/15 05:55:43;;;;;;;0.60;0.60;;;23.30;70.30;;;;;;4896523;29;20842;-74
2022/10/15 05:58:12;;;;;;;0.50;0.50;;;23.30;70.20;;;;;;4895314;29;20484;-74
2022/10/15 06:00:40;;;;;;;1.77;0.63;;;23.30;70.30;;;;;;4898033;29;20459;-74
2022/10/15 06:03:12;;;;;;;1.00;0.53;;;23.30;70.30;;;;;;4893666;29;20465;-74
2022/10/15 06:05:40;;;;;;;0.60;0.60;;;23.30;70.20;;;;;;4892421;29;20460;-74
2022/10/15 06:08:08;;;;;;;0.60;0.60;;;23.30;70.30;;;;;;4894412;29;20468;-74
2022/10/15 06:10:37;;;;;;;0.70;0.70;;;23.30;70.30;;;;;;4897753;29;20439;-74
2022/10/15 06:13:07;;;;;;;0.90;0.80;;;23.40;70.30;;;;;;4891768;29;20471;-74
2022/10/15 06:15:38;;;;;;;0.53;0.53;;;23.40;70.20;;;;;;4895166;29;20564;-74
2022/10/15 06:18:14;;;;;;;0.93;0.77;;;23.40;70.30;;;;;;4893517;29;20488;-74
2022/10/15 06:20:43;;;;;;;0.63;0.63;;;23.40;70.40;;;;;;4896457;29;20462;-75
2022/10/15 06:23:12;;;;;;;0.70;0.50;;;23.40;70.40;;;;;;4886685;29;20475;-74
2022/10/15 06:25:40;;;;;;;1.67;0.60;;;23.40;70.20;;;;;;4888801;29;20461;-74
2022/10/15 06:28:09;;;;;;;1.10;0.70;;;23.40;70.30;;;;;;4887654;29;20481;-74
2022/10/15 06:30:44;;;;;;;1.27;0.63;;;23.40;70.20;;;;;;4893616;29;20460;-74
2022/10/15 06:33:12;;;;;;;0.60;0.60;;;23.40;70.20;;;;;;4889452;29;20929;-74
2022/10/15 06:35:40;;;;;;;0.70;0.70;;;23.40;70.20;;;;;;4886905;29;20464;-74
2022/10/15 06:38:08;;;;;;;0.60;0.60;;;23.40;70.30;;;;;;4882259;29;20477;-74
2022/10/15 06:40:37;;;;;;;0.87;0.67;;;23.40;70.30;;;;;;4884861;29;20467;-75
2022/10/15 06:43:07;;;;;;;1.00;0.90;;;23.40;70.40;;;;;;4887508;29;20474;-75
2022/10/15 06:45:40;;;;;;;0.53;0.53;;;23.40;70.30;;;;;;4903209;29;20479;-75
2022/10/15 06:48:17;;;;;;;0.63;0.60;;;23.40;70.30;;;;;;4880794;29;20456;-74
2022/10/15 06:50:45;;;;;;;0.50;0.50;;;23.40;70.30;;;;;;4884181;29;20468;-74
2022/10/15 06:53:13;;;;;;;0.50;0.50;;;23.40;70.30;;;;;;4888207;29;20461;-75
2022/10/15 06:55:41;;;;;;;0.60;0.50;;;23.40;70.30;;;;;;4880094;29;20495;-76
2022/10/15 06:58:10;;;;;;;1.20;0.83;;;23.40;70.30;;;;;;4894440;29;20481;-75
2022/10/15 07:00:39;;;;;;;0.80;0.70;;;23.40;70.20;;;;;;4891922;29;20453;-76
2022/10/15 07:03:07;;;;;;;0.80;0.80;;;23.40;70.20;;;;;;4894114;29;20456;-75
2022/10/15 07:05:38;;;;;;;0.70;0.70;;;23.40;70.20;;;;;;4891073;29;21423;-74
2022/10/15 07:08:06;;;;;;;0.50;0.40;;;23.40;70.30;;;;;;4894435;29;20470;-75
2022/10/15 07:10:34;;;;;;;1.97;0.60;;;23.40;70.30;;;;;;4891058;29;20463;-74
2022/10/15 07:13:03;;;;;;;0.63;0.60;;;23.50;70.40;;;;;;4883346;29;20758;-74
2022/10/15 07:15:31;;;;;;;0.70;0.50;;;23.50;70.40;;;;;;4893588;29;20464;-73
2022/10/15 07:18:01;;;;;;;1.00;0.70;;;23.40;70.40;;;;;;4890879;29;20459;-73
2022/10/15 07:20:30;;;;;;;0.60;0.60;;;23.50;70.40;;;;;;4888195;29;20485;-73
2022/10/15 07:23:00;;;;;;;0.53;0.50;;;23.50;70.50;;;;;;4886050;29;20469;-73
2022/10/15 07:25:31;;;;;;;0.53;0.53;;;23.50;70.50;;;;;;4887600;29;20940;-73
2022/10/15 07:28:00;;;;;;;1.00;0.57;;;23.50;70.60;;;;;;4888691;29;20472;-73
2022/10/15 07:30:28;;;;;;;0.47;0.40;;;23.50;70.60;;;;;;4896096;29;20570;-74
2022/10/15 07:32:56;;;;;;;0.50;0.40;;;23.50;70.40;;;;;;4897444;29;20953;-74
2022/10/15 07:35:27;;;;;;;0.60;0.60;;;23.50;70.50;;;;;;4893097;29;20811;-74
2022/10/15 07:37:56;;;;;;;1.40;1.00;;;23.50;70.50;;;;;;4891282;29;20442;-74
2022/10/15 07:40:24;;;;;;;1.10;0.50;;;23.50;70.50;;;;;;4890786;29;20987;-73
2022/10/15 07:42:56;;;;;;;1.70;0.70;;;23.50;70.50;;;;;;4899096;29;20788;-74
2022/10/15 07:45:29;;;;;;;0.83;0.60;;;23.50;70.40;;;;;;4896851;29;20939;-74
2022/10/15 07:47:57;;;;;;;3.57;1.60;;;23.50;70.50;;;;;;4893345;29;20456;-70
2022/10/15 07:50:27;;;;;;;12.07;2.53;;;23.50;71.10;;;;;;4896316;29;20460;-69
2022/10/15 07:53:02;;;;;;;8.93;1.77;;;23.60;73.50;;;;;;4898294;29;20472;-73
2022/10/15 07:55:30;;;;;;;2.80;1.60;;;23.60;73.20;;;;;;4891271;29;20560;-69
2022/10/15 07:57:58;;;;;;;3.43;1.40;;;23.60;73.50;;;;;;4894161;29;20875;-69
2022/10/15 08:00:26;;;;;;;3.63;1.40;;;23.60;73.70;;;;;;4894628;29;20483;-68
2022/10/15 08:02:54;;;;;;;3.60;1.70;;;23.60;73.40;;;;;;4889106;29;20485;-68
2022/10/15 08:05:23;;;;;;;5.20;1.40;;;23.60;72.90;;;;;;4895010;29;20989;-69
2022/10/15 08:07:54;;;;;;;3.57;1.83;;;23.60;72.60;;;;;;4897065;29;20473;-69
2022/10/15 08:10:23;;;;;;;4.20;1.43;;;23.60;72.30;;;;;;4890305;29;20904;-68
2022/10/15 08:12:51;;;;;;;6.60;2.40;;;23.60;72.20;;;;;;4897718;29;20470;-69
2022/10/15 08:15:19;;;;;;;4.30;1.77;;;23.60;72.00;;;;;;4891035;29;20455;-68
2022/10/15 08:17:48;;;;;;;4.37;1.47;;;23.60;72.10;;;;;;4891326;29;20776;-67
2022/10/15 08:20:16;;;;;;;5.17;1.57;;;23.60;71.90;;;;;;4892494;29;20579;-67
2022/10/15 08:22:44;;;;;;;2.80;1.80;;;23.60;72.50;;;;;;4888746;29;20468;-67
2022/10/15 08:25:14;;;;;;;7.10;2.53;;;23.60;72.60;;;;;;4891179;29;20567;-67
2022/10/15 08:27:42;;;;;;;5.83;1.63;;;23.60;73.20;;;;;;4891871;29;20841;-68
2022/10/15 08:30:11;;;;;;;9.23;2.17;;;23.60;72.90;;;;;;4896868;29;20536;-67
2022/10/15 08:32:39;;;;;;;4.57;1.93;;;23.60;72.50;;;;;;4890339;29;20513;-66
2022/10/15 08:35:08;;;;;;;2.70;2.00;;;23.60;72.40;;;;;;4895687;29;20466;-66
2022/10/15 08:37:36;;;;;;;4.90;2.10;;;23.60;72.30;;;;;;4896816;29;20703;-67
2022/10/15 08:40:05;;;;;;;3.50;2.17;;;23.60;72.30;;;;;;4895491;29;20483;-67
2022/10/15 08:42:37;;;;;;;2.93;1.67;;;23.60;72.20;;;;;;4892774;29;20805;-70
2022/10/15 08:45:13;;;;;;;3.43;2.13;;;23.60;72.10;;;;;;4893509;29;20470;-66
2022/10/15 08:47:46;;;;;;;3.73;1.90;;;23.60;72.10;;;;;;4893171;29;20454;-69
2022/10/15 08:50:24;;;;;;;3.53;2.43;;;23.60;72.00;;;;;;4899289;29;21014;-66
2022/10/15 08:52:54;;;;;;;2.23;1.70;;;23.60;72.00;;;;;;4896361;29;21461;-67
2022/10/15 08:55:23;;;;;;;2.40;1.87;;;23.60;72.00;;;;;;4894511;29;20817;-66
2022/10/15 08:58:02;;;;;;;5.77;2.10;;;23.60;72.00;;;;;;4894914;29;20468;-66
2022/10/15 09:00:35;;;;;;;1.83;1.73;;;23.60;71.90;;;;;;4899125;29;20804;-66
2022/10/15 09:03:11;;;;;;;2.90;2.10;;;23.60;72.00;;;;;;4895819;29;20465;-68
2022/10/15 09:05:53;;;;;;;3.20;2.33;;;23.60;71.80;;;;;;4890135;29;20462;-67
2022/10/15 09:08:28;;;;;;;2.33;1.87;;;23.60;71.90;;;;;;4889829;29;20461;-67
2022/10/15 09:11:02;;;;;;;1.90;1.80;;;23.60;71.80;;;;;;4910123;29;20474;-66
2022/10/15 09:13:35;;;;;;;2.07;1.80;;;23.60;71.80;;;;;;4895365;29;20849;-68
2022/10/15 09:16:11;;;;;;;3.80;2.37;;;23.60;72.00;;;;;;4896880;29;20547;-66
2022/10/15 09:18:42;;;;;;;3.70;1.90;;;23.60;71.90;;;;;;4891431;29;20496;-67
2022/10/15 09:21:12;;;;;;;2.63;1.53;;;23.60;72.00;;;;;;4895622;29;20481;-70
2022/10/15 09:23:42;;;;;;;3.80;1.90;;;23.60;71.90;;;;;;4887358;29;20468;-71
2022/10/15 09:26:22;;;;;;;1.70;1.60;;;23.60;71.90;;;;;;4893253;29;20490;-71
2022/10/15 09:28:58;;;;;;;3.00;1.43;;;23.60;71.90;;;;;;4895055;29;20456;-71
2022/10/15 09:31:36;;;;;;;2.53;1.70;;;23.70;71.90;;;;;;4895533;29;20456;-71
2022/10/15 09:34:13;;;;;;;2.60;1.90;;;23.70;71.70;;;;;;4892328;29;20976;-70
2022/10/15 09:36:46;;;;;;;1.80;1.23;;;23.70;71.70;;;;;;4892037;29;20793;-69
2022/10/15 09:39:38;;;;;;;2.60;1.60;;;23.70;71.60;;;;;;4890771;29;20473;-70
2022/10/15 09:42:16;;;;;;;2.20;2.00;;;23.70;71.70;;;;;;4888691;29;20466;-69
2022/10/15 09:44:47;;;;;;;1.40;1.30;;;23.80;71.80;;;;;;4890637;29;20450;-70
2022/10/15 09:47:22;;;;;;;1.60;1.50;;;23.80;71.90;;;;;;4890830;29;20459;-69
2022/10/15 09:49:55;;;;;;;1.70;1.60;;;23.80;71.90;;;;;;4889212;29;20496;-71
2022/10/15 09:52:35;;;;;;;2.77;1.77;;;23.80;72.00;;;;;;4890966;29;20475;-70
2022/10/15 09:55:16;;;;;;;1.40;1.30;;;23.80;71.90;;;;;;4892944;29;20560;-70
2022/10/15 09:57:50;;;;;;;2.00;1.37;;;23.90;72.10;;;;;;4886391;29;20464;-70
2022/10/15 10:00:20;;;;;;;3.77;2.80;;;23.90;72.00;;;;;;4890826;29;20495;-70
2022/10/15 10:03:05;;;;;;;2.00;1.07;;;23.90;71.80;;;;;;4888571;29;20462;-71
2022/10/15 10:05:37;;;;;;;2.80;1.50;;;23.90;71.80;;;;;;4892196;29;20819;-71
2022/10/15 10:08:10;;;;;;;5.73;2.00;;;24.00;71.80;;;;;;4890358;29;20525;-71
2022/10/15 10:10:39;;;;;;;4.97;1.50;;;24.00;71.90;;;;;;4890398;29;20466;-71
2022/10/15 10:13:23;;;;;;;5.10;1.27;;;24.00;71.90;;;;;;4895082;29;20464;-71
2022/10/15 10:15:54;;;;;;;1.50;1.03;;;24.00;71.70;;;;;;4884947;29;20471;-70
2022/10/15 10:18:27;;;;;;;1.83;1.20;;;24.00;71.60;;;;;;4886228;29;20508;-73
2022/10/15 10:20:58;;;;;;;1.60;1.20;;;24.00;71.70;;;;;;4885967;29;20478;-71
2022/10/15 10:23:33;;;;;;;2.03;1.70;;;24.00;71.80;;;;;;4889166;29;20967;-71
2022/10/15 10:26:03;;;;;;;1.93;1.50;;;24.00;71.60;;;;;;4888372;29;20457;-71
2022/10/15 10:28:34;;;;;;;5.90;1.60;;;24.00;71.60;;;;;;4886831;29;20446;-71
2022/10/15 10:31:11;;;;;;;5.90;1.40;;;24.00;71.80;;;;;;4894251;29;20464;-73
2022/10/15 10:33:44;;;;;;;12.67;4.60;;;24.00;71.90;;;;;;4888927;29;20477;-73
2022/10/15 10:36:21;;;;;;;5.50;3.40;;;24.00;73.40;;;;;;4889565;29;20459;-73
2022/10/15 10:39:00;;;;;;;4.67;2.60;;;24.00;74.50;;;;;;4889759;29;20466;-73
2022/10/15 10:41:50;;;;;;;5.00;2.90;;;24.10;74.40;;;;;;4892316;29;21045;-73
2022/10/15 10:44:22;;;;;;;9.50;3.20;;;24.10;74.30;;;;;;4890621;29;20455;-75
2022/10/15 10:47:14;;;;;;;5.07;2.37;;;24.10;74.10;;;;;;4892620;29;20930;-73
2022/10/15 10:49:44;;;;;;;3.27;2.20;;;24.20;73.90;;;;;;4896427;29;20450;-73
2022/10/15 10:52:21;;;;;;;4.50;2.33;;;24.20;73.30;;;;;;4896793;29;20530;-73
2022/10/15 10:54:56;;;;;;;3.50;2.53;;;24.30;72.70;;;;;;4895453;29;20520;-75
2022/10/15 10:57:32;;;;;;;3.57;2.03;;;24.40;71.70;;;;;;4886578;29;20470;-73
2022/10/15 11:00:03;;;;;;;9.03;3.27;;;24.60;71.30;;;;;;4889353;29;20488;-77
2022/10/15 11:02:37;;;;;;;2.40;2.17;;;24.60;70.90;;;;;;4887766;29;20468;-74
2022/10/15 11:05:06;;;;;;;2.90;2.23;;;24.70;71.10;;;;;;4890566;29;20549;-72
2022/10/15 11:07:44;;;;;;;3.80;2.13;;;24.70;71.10;;;;;;4883168;29;20476;-73
2022/10/15 11:10:20;;;;;;;2.60;1.80;;;24.60;71.20;;;;;;4891201;29;20481;-73
2022/10/15 11:12:59;;;;;;;2.67;1.80;;;24.60;71.00;;;;;;4894124;29;20536;-70
2022/10/15 11:15:41;;;;;;;2.00;1.90;;;24.60;71.10;;;;;;4892034;29;20496;-70
2022/10/15 11:18:27;;;;;;;2.57;2.17;;;24.60;70.90;;;;;;4889456;29;20467;-71
2022/10/15 11:21:05;;;;;;;2.23;2.03;;;24.60;70.90;;;;;;4891587;29;20476;-70
2022/10/15 11:24:05;;;;;;;3.17;1.63;;;24.60;70.90;;;;;;4886767;29;20848;-70
2022/10/15 11:26:52;;;;;;;2.50;2.07;;;24.60;70.80;;;;;;4890672;29;20468;-69
2022/10/15 11:29:53;;;;;;;2.90;1.60;;;24.60;70.70;;;;;;4904718;29;20521;-70
2022/10/15 11:32:41;;;;;;;4.03;2.00;;;24.70;70.50;;;;;;4896223;29;20471;-70
2022/10/15 11:35:42;;;;;;;3.83;2.17;;;24.80;70.20;;;;;;4895331;29;20453;-70
2022/10/15 11:38:31;;;;;;;3.10;2.23;;;24.80;69.90;;;;;;4892567;29;20499;-70
2022/10/15 11:41:14;;;;;;;2.10;1.80;;;24.90;69.70;;;;;;4893706;29;20839;-69
2022/10/15 11:44:03;;;;;;;2.73;1.90;;;24.90;69.70;;;;;;4887559;29;20560;-75
2022/10/15 11:46:40;;;;;;;1.73;1.60;;;24.90;69.60;;;;;;4896256;29;20925;-70
2022/10/15 11:49:26;;;;;;;2.20;1.53;;;24.90;69.60;;;;;;4894428;29;20469;-70
2022/10/15 11:52:09;;;;;;;5.60;2.33;;;24.90;69.50;;;;;;4881883;29;20556;-70
2022/10/15 11:54:40;;;;;;;6.13;2.07;;;25.00;69.30;;;;;;4894789;29;20492;-70
2022/10/15 11:57:11;;;;;;;2.10;1.87;;;25.00;69.10;;;;;;4895716;29;20911;-69
2022/10/15 11:59:47;;;;;;;2.60;1.77;;;25.00;69.00;;;;;;4893988;29;20465;-70
2022/10/15 12:02:18;;;;;;;1.50;1.37;;;25.00;69.10;;;;;;4897092;29;20472;-69
2022/10/15 12:04:49;;;;;;;1.57;1.40;;;24.90;69.10;;;;;;4887904;29;20828;-70
2022/10/15 12:07:23;;;;;;;4.90;1.60;;;24.90;69.20;;;;;;4895963;29;20514;-70
2022/10/15 12:09:55;;;;;;;1.70;1.57;;;24.90;69.00;;;;;;4887597;29;20465;-70
2022/10/15 12:12:33;;;;;;;1.80;1.70;;;25.00;69.10;;;;;;4897067;29;20430;-70
2022/10/15 12:15:26;;;;;;;6.00;1.80;;;25.00;69.00;;;;;;4896479;29;20472;-70
2022/10/15 12:18:01;;;;;;;1.83;1.60;;;25.00;68.90;;;;;;4897892;29;20470;-70
2022/10/15 12:20:30;;;;;;;2.80;1.40;;;25.10;68.70;;;;;;4892577;29;20492;-70
2022/10/15 12:23:02;;;;;;;1.27;1.17;;;25.10;68.70;;;;;;4899491;29;20918;-70
2022/10/15 12:25:45;;;;;;;1.27;1.20;;;25.10;68.70;;;;;;4895366;29;20475;-70
2022/10/15 12:28:17;;;;;;;2.57;1.73;;;25.00;68.80;;;;;;4892063;29;20450;-70
2022/10/15 12:31:00;;;;;;;2.13;1.73;;;24.90;69.00;;;;;;4891496;29;20971;-70
2022/10/15 12:33:34;;;;;;;1.40;1.30;;;24.90;69.00;;;;;;4899877;29;20834;-70
2022/10/15 12:36:08;;;;;;;1.77;1.50;;;24.80;69.40;;;;;;4892418;29;20460;-70
2022/10/15 12:38:40;;;;;;;1.70;1.50;;;24.80;69.20;;;;;;4899471;29;20441;-70
2022/10/15 12:41:11;;;;;;;1.43;1.33;;;24.80;69.20;;;;;;4897747;29;20987;-70
2022/10/15 12:43:42;;;;;;;1.93;1.40;;;24.80;69.20;;;;;;4899788;29;20434;-70
2022/10/15 12:46:13;;;;;;;0.87;0.87;;;24.70;69.30;;;;;;4898378;29;20469;-70
2022/10/15 12:48:42;;;;;;;1.13;1.13;;;24.70;69.30;;;;;;4885476;29;20452;-70
2022/10/15 12:51:29;;;;;;;1.97;1.87;;;24.70;69.30;;;;;;4895645;29;20476;-70
2022/10/15 12:54:01;;;;;;;1.40;1.30;;;24.70;69.50;;;;;;4883821;29;20506;-70
2022/10/15 12:56:38;;;;;;;1.10;1.00;;;24.70;69.50;;;;;;4897911;29;20496;-70
2022/10/15 12:59:30;;;;;;;1.27;1.17;;;24.70;69.80;;;;;;4898718;29;20451;-70
2022/10/15 13:02:02;;;;;;;0.90;0.90;;;24.70;69.40;;;;;;4896610;29;20481;-70
2022/10/15 13:04:39;;;;;;;1.20;1.10;;;24.70;69.30;;;;;;4898916;29;20483;-70
2022/10/15 13:07:12;;;;;;;1.53;1.37;;;24.70;69.10;;;;;;4895555;29;20565;-70
2022/10/15 13:09:42;;;;;;;1.20;0.97;;;24.90;68.80;;;;;;4899120;29;20455;-70
2022/10/15 13:12:22;;;;;;;1.00;1.00;;;24.90;68.60;;;;;;4897883;29;21085;-71
2022/10/15 13:14:56;;;;;;;0.90;0.90;;;24.90;68.60;;;;;;4897159;29;20865;-70
2022/10/15 13:17:24;;;;;;;1.20;1.10;;;24.90;68.70;;;;;;4898592;29;20471;-70
2022/10/15 13:19:58;;;;;;;1.00;1.00;;;24.90;68.70;;;;;;4896073;29;20491;-70